createdAt,value
2023-04-27T00:04:20.992Z,48.56
2023-04-27T00:09:23.285Z,49.00
2023-04-27T00:14:28.701Z,50.02
2023-04-27T00:19:30.709Z,48.81
2023-04-27T00:24:32.637Z,49.26
2023-04-27T00:29:34.610Z,48.89
2023-04-27T00:34:36.863Z,48.62
2023-04-27T00:39:38.875Z,48.56
2023-04-27T00:44:41.167Z,48.65
2023-04-27T00:49:43.054Z,48.72
2023-04-27T00:54:45.410Z,48.82
2023-04-27T00:59:47.352Z,48.73
2023-04-27T01:04:53.629Z,49.48
2023-04-27T01:09:55.527Z,49.77
2023-04-27T01:14:57.450Z,48.12
2023-04-27T01:19:59.770Z,48.87
2023-04-27T01:25:01.637Z,49.31
2023-04-27T01:30:06.718Z,48.87
2023-04-27T01:35:08.938Z,49.28
2023-04-27T01:40:10.977Z,50.06
2023-04-27T01:45:12.957Z,49.89
2023-04-27T01:50:14.836Z,50.46
2023-04-27T01:55:16.813Z,50.53
2023-04-27T02:00:19.047Z,49.00
2023-04-27T02:05:24.411Z,49.91
2023-04-27T02:10:27.765Z,50.25
2023-04-27T02:15:33.003Z,49.90
2023-04-27T02:20:36.112Z,50.38
2023-04-27T02:25:43.044Z,50.43
2023-04-27T02:30:45.203Z,50.78
2023-04-27T02:35:48.141Z,50.66
2023-04-27T02:40:53.578Z,50.79
2023-04-27T02:45:55.718Z,50.36
2023-04-27T02:50:57.720Z,50.79
2023-04-27T02:55:59.705Z,50.34
2023-04-27T03:01:02.741Z,49.74
2023-04-27T03:06:04.760Z,49.91
2023-04-27T03:11:06.832Z,50.06
2023-04-27T03:16:13.896Z,49.84
2023-04-27T03:21:17.113Z,49.68
2023-04-27T03:26:19.029Z,49.42
2023-04-27T03:31:21.199Z,49.33
2023-04-27T03:36:23.158Z,48.88
2023-04-27T03:41:25.096Z,48.57
2023-04-27T03:46:27.121Z,48.53
2023-04-27T03:51:30.805Z,48.41
2023-04-27T03:56:33.358Z,48.50
2023-04-27T04:01:36.519Z,48.41
2023-04-27T04:06:38.431Z,48.68
2023-04-27T04:11:40.411Z,48.36
2023-04-27T04:16:45.222Z,48.17
2023-04-27T04:21:47.915Z,48.07
2023-04-27T04:26:49.807Z,47.96
2023-04-27T04:31:52.141Z,47.92
2023-04-27T04:36:54.459Z,48.01
2023-04-27T04:41:56.878Z,47.61
2023-04-27T04:47:02.137Z,46.87
2023-04-27T04:52:06.738Z,46.60
2023-04-27T04:57:08.742Z,46.37
2023-04-27T05:02:10.869Z,45.83
2023-04-27T05:07:15.073Z,45.97
2023-04-27T05:12:17.710Z,46.73
2023-04-27T05:17:19.676Z,46.21
2023-04-27T05:22:21.548Z,45.96
2023-04-27T05:27:23.423Z,45.11
2023-04-27T05:32:25.895Z,44.46
2023-04-27T05:37:27.853Z,43.14
2023-04-27T05:42:29.703Z,42.66
2023-04-27T05:47:31.571Z,39.95
2023-04-27T05:52:34.168Z,39.21
2023-04-27T05:57:38.212Z,38.22
2023-04-27T06:02:40.197Z,38.30
2023-04-27T06:07:43.866Z,34.82
2023-04-27T06:12:46.450Z,30.56
2023-04-27T06:17:48.520Z,33.29
2023-04-27T06:22:50.385Z,31.15
2023-04-27T06:27:52.240Z,32.04
2023-04-27T06:32:54.248Z,30.75
2023-04-27T06:37:58.949Z,31.11
2023-04-27T06:43:00.996Z,30.52
2023-04-27T06:48:02.984Z,28.89
2023-04-27T06:53:05.112Z,28.08
2023-04-27T06:58:07.380Z,27.28
2023-04-27T07:03:09.473Z,26.90
2023-04-27T07:08:11.523Z,23.88
2023-04-27T07:16:33.286Z,20.99
2023-04-27T07:21:35.447Z,21.08
2023-04-27T07:26:37.699Z,20.63
2023-04-27T07:31:39.828Z,19.98
2023-04-27T07:36:41.832Z,18.78
2023-04-27T07:41:43.911Z,17.95
2023-04-27T07:46:49.019Z,17.05
2023-04-27T07:51:51.264Z,17.00
2023-04-27T07:56:54.099Z,17.19
2023-04-27T08:02:07.131Z,16.46
2023-04-27T08:07:19.513Z,16.72
2023-04-27T08:12:21.876Z,16.41
2023-04-27T08:17:24.052Z,16.05
2023-04-27T08:22:26.088Z,15.83
2023-04-27T08:27:28.279Z,15.85
2023-04-27T08:32:30.344Z,15.80
2023-04-27T08:37:33.439Z,14.58
2023-04-27T08:42:36.618Z,14.41
2023-04-27T08:47:43.563Z,13.55
2023-04-27T08:52:49.536Z,14.00
2023-04-27T08:57:58.692Z,13.86
2023-04-27T09:03:04.267Z,14.17
2023-04-27T09:08:08.182Z,13.25
2023-04-27T09:13:10.209Z,12.86
2023-04-27T09:18:21.335Z,13.50
2023-04-27T09:23:31.821Z,13.40
2023-04-27T09:28:35.229Z,12.67
2023-04-27T09:33:37.270Z,12.03
2023-04-27T09:38:39.604Z,12.21
2023-04-27T09:43:45.736Z,12.76
2023-04-27T09:48:49.791Z,14.31
2023-04-27T09:53:59.322Z,14.56
2023-04-27T09:59:24.385Z,14.91
2023-04-27T10:04:57.726Z,14.48
2023-04-27T10:10:04.959Z,12.75
2023-04-27T10:15:14.809Z,12.29
2023-04-27T10:20:17.965Z,15.55
2023-04-27T10:25:26.434Z,17.55
2023-04-27T10:30:34.798Z,16.30
2023-04-27T10:35:37.646Z,15.19
2023-04-27T10:40:39.955Z,16.36
2023-04-27T10:45:45.505Z,18.54
2023-04-27T10:50:47.910Z,20.19
2023-04-27T10:55:56.944Z,19.89
2023-04-27T11:00:58.950Z,17.98
2023-04-27T11:06:05.365Z,17.56
2023-04-27T11:11:09.788Z,19.17
2023-04-27T11:16:11.807Z,21.42
2023-04-27T11:21:20.576Z,23.30
2023-04-27T11:26:26.580Z,26.37
2023-04-27T11:31:43.625Z,26.50
2023-04-27T11:37:03.768Z,25.76
2023-04-27T11:42:24.925Z,21.86
2023-04-27T11:47:29.333Z,23.41
2023-04-27T11:52:36.280Z,24.21
2023-04-27T11:57:39.056Z,24.77
2023-04-27T12:02:42.988Z,25.70
2023-04-27T12:07:45.582Z,25.90
2023-04-27T12:12:47.554Z,24.25
2023-04-27T12:17:49.573Z,22.46
2023-04-27T12:22:51.890Z,20.53
2023-04-27T12:27:54.055Z,19.96
2023-04-27T12:32:56.287Z,19.58
2023-04-27T12:37:58.719Z,19.15
2023-04-27T12:43:01.572Z,18.89
2023-04-27T12:48:04.412Z,18.97
2023-04-27T12:53:06.616Z,19.63
2023-04-27T12:58:08.600Z,20.10
2023-04-27T13:03:10.924Z,19.91
2023-04-27T13:08:13.002Z,19.72
2023-04-27T13:13:15.004Z,20.24
2023-04-27T13:18:16.985Z,20.65
2023-04-27T13:23:19.154Z,20.55
2023-04-27T13:28:21.117Z,20.27
2023-04-27T13:33:23.830Z,20.61
2023-04-27T13:38:26.212Z,20.59
2023-04-27T13:43:28.235Z,21.09
2023-04-27T13:48:30.995Z,21.75
2023-04-27T13:53:33.071Z,23.01
2023-04-27T13:58:35.117Z,24.21
2023-04-27T14:03:37.254Z,24.38
2023-04-27T14:08:39.320Z,25.44
2023-04-27T14:13:41.299Z,25.54
2023-04-27T14:18:43.292Z,26.18
2023-04-27T14:23:45.324Z,26.36
2023-04-27T14:28:47.350Z,27.10
2023-04-27T14:33:49.378Z,27.18
2023-04-27T14:38:51.423Z,27.09
2023-04-27T14:43:54.342Z,27.29
2023-04-27T14:48:56.612Z,27.68
2023-04-27T14:53:58.699Z,28.08
2023-04-27T14:59:00.850Z,27.82
2023-04-27T15:04:03.144Z,28.25
2023-04-27T15:09:06.335Z,28.55
2023-04-27T15:14:08.826Z,28.68
2023-04-27T15:19:11.070Z,29.46
2023-04-27T15:24:13.056Z,29.55
2023-04-27T15:29:15.413Z,29.82
2023-04-27T15:34:17.732Z,29.96
2023-04-27T15:39:19.770Z,29.92
2023-04-27T15:44:21.762Z,30.02
2023-04-27T15:49:23.789Z,30.15
2023-04-27T15:54:26.263Z,30.24
2023-04-27T15:59:28.423Z,30.52
2023-04-27T16:04:30.527Z,30.67
2023-04-27T16:09:32.603Z,30.81
2023-04-27T16:14:34.626Z,31.12
2023-04-27T16:19:36.672Z,31.21
2023-04-27T16:24:38.682Z,31.51
2023-04-27T16:29:40.899Z,31.82
2023-04-27T16:34:43.118Z,31.78
2023-04-27T16:39:45.447Z,32.35
2023-04-27T16:44:47.841Z,32.35
2023-04-27T16:49:49.925Z,32.57
2023-04-27T16:54:52.043Z,33.04
2023-04-27T16:59:54.339Z,32.81
2023-04-27T17:04:57.926Z,33.38
2023-04-27T17:10:00.138Z,33.40
2023-04-27T17:15:02.492Z,33.67
2023-04-27T17:20:14.836Z,34.41
2023-04-27T17:25:17.929Z,34.19
2023-04-27T17:30:20.012Z,34.69
2023-04-27T17:35:22.230Z,34.59
2023-04-27T17:40:24.283Z,34.82
2023-04-27T17:45:28.777Z,35.26
2023-04-27T17:50:31.677Z,35.27
2023-04-27T17:55:33.784Z,35.91
2023-04-27T18:00:36.004Z,35.99
2023-04-27T18:05:38.243Z,36.75
2023-04-27T18:10:40.256Z,37.21
2023-04-27T18:15:42.370Z,37.56
2023-04-27T18:20:45.038Z,37.25
2023-04-27T18:25:47.553Z,37.57
2023-04-27T18:30:49.771Z,37.38
2023-04-27T18:35:51.906Z,37.61
2023-04-27T18:40:54.179Z,37.87
2023-04-27T18:45:56.405Z,37.58
2023-04-27T18:50:58.617Z,38.10
2023-04-27T18:56:00.984Z,38.01
2023-04-27T19:01:03.093Z,38.70
2023-04-27T19:06:05.214Z,38.09
2023-04-27T19:11:07.347Z,37.97
2023-04-27T19:16:10.476Z,38.63
2023-04-27T19:21:12.940Z,38.48
2023-04-27T19:26:15.331Z,38.90
2023-04-27T19:31:17.955Z,38.54
2023-04-27T19:36:20.837Z,39.08
2023-04-27T19:41:23.778Z,38.63
2023-04-27T19:46:26.795Z,39.07
2023-04-27T19:51:29.694Z,38.79
2023-04-27T19:56:31.702Z,39.49
2023-04-27T20:01:33.620Z,36.47
2023-04-27T20:06:35.878Z,39.64
2023-04-27T20:11:38.006Z,39.95
2023-04-27T20:16:40.188Z,40.28
2023-04-27T20:21:42.375Z,40.25
2023-04-27T20:26:44.622Z,40.49
2023-04-27T20:31:48.672Z,40.42
2023-04-27T20:36:53.086Z,40.90
2023-04-27T20:41:55.003Z,40.93
2023-04-27T20:46:56.896Z,38.65
2023-04-27T20:51:59.127Z,41.24
2023-04-27T20:57:02.266Z,41.40
2023-04-27T21:02:04.432Z,41.96
2023-04-27T21:07:06.617Z,41.92
2023-04-27T21:12:09.113Z,42.56
2023-04-27T21:17:15.173Z,42.53
2023-04-27T21:22:17.174Z,42.77
2023-04-27T21:27:19.338Z,42.65
2023-04-27T21:32:21.370Z,42.93
2023-04-27T21:37:23.222Z,39.92
2023-04-27T21:42:25.886Z,43.15
2023-04-27T21:47:28.232Z,43.56
2023-04-27T21:52:30.484Z,43.73
2023-04-27T21:57:35.563Z,44.20
2023-04-27T22:02:37.779Z,44.10
2023-04-27T22:07:40.062Z,44.79
2023-04-27T22:12:42.240Z,44.97
2023-04-27T22:17:44.430Z,45.05
2023-04-27T22:22:46.641Z,45.25
2023-04-27T22:27:48.630Z,45.28
2023-04-27T22:32:50.554Z,42.67
2023-04-27T22:37:52.738Z,45.51
2023-04-27T22:42:55.820Z,46.02
2023-04-27T22:47:57.984Z,46.38
2023-04-27T22:53:00.761Z,46.50
2023-04-27T22:58:02.713Z,46.81
2023-04-27T23:03:04.808Z,42.15
2023-04-27T23:08:06.963Z,46.70
2023-04-27T23:13:10.834Z,46.93
2023-04-27T23:18:12.918Z,47.71
2023-04-27T23:23:15.002Z,48.04
2023-04-27T23:28:17.131Z,48.19
2023-04-27T23:33:18.983Z,43.15
2023-04-27T23:38:21.173Z,47.77
2023-04-27T23:43:23.198Z,48.66
2023-04-27T23:48:25.333Z,48.98
2023-04-27T23:53:27.369Z,45.06
2023-04-27T23:58:29.423Z,48.86
